Time;durP1;ratioP1;P1;durP2;ratioP2;P2;SDS_P1;SDS_P2;PMS_P1;PMS_P2;Temp;Humidity;BMP_temperature;BMP_pressure;BME280_temperature;BME280_humidity;BME280_pressure;Samples;Min_cycle;Max_cycle;Signal;HPM_P1;HPM_P2
2022/09/14 00:02:03;;;;;;;9.60;3.60;;;;;;;16.46;68.34;98164.94;106186;1274;26610;-83
2022/09/14 00:04:35;;;;;;;10.30;3.80;;;;;;;16.44;68.35;98164.03;106401;1274;25232;-83
2022/09/14 00:07:32;;;;;;;8.00;3.90;;;;;;;16.41;68.41;98165.35;106393;1274;22542;-83
2022/09/14 00:10:13;;;;;;;8.70;3.90;;;;;;;16.35;68.40;98163.64;106110;1274;25500;-83
2022/09/14 00:12:58;;;;;;;7.20;3.60;;;;;;;16.30;68.41;98161.17;106426;1274;25381;-83
2022/09/14 00:15:48;;;;;;;10.20;3.80;;;;;;;16.26;68.53;98162.48;106100;1274;22745;-83
2022/09/14 00:18:23;;;;;;;7.30;3.30;;;;;;;16.23;68.46;98163.93;106280;1274;23527;-83
2022/09/14 00:21:03;;;;;;;8.10;3.40;;;;;;;16.20;68.48;98163.52;106358;1274;25356;-83
2022/09/14 00:23:42;;;;;;;6.90;3.30;;;;;;;16.16;68.53;98160.13;106055;1274;25362;-83
2022/09/14 00:26:26;;;;;;;9.40;3.10;;;;;;;16.14;68.53;98158.03;106045;1274;24266;-82
2022/09/14 00:29:13;;;;;;;8.10;3.30;;;;;;;16.14;68.62;98155.01;106393;1274;22600;-83
2022/09/14 00:31:58;;;;;;;7.30;3.60;;;;;;;16.11;68.72;98153.36;106357;1274;22687;-83
2022/09/14 00:35:41;;;;;;;8.60;3.30;;;;;;;16.07;68.68;98147.86;106171;1274;22557;-84
2022/09/14 00:38:06;;;;;;;8.90;2.90;;;;;;;16.01;68.70;98147.09;106270;1274;23848;-84
2022/09/14 00:41:39;;;;;;;;;;;;;;;;;;;;;
2022/09/14 00:44:23;;;;;;;6.80;2.60;;;;;;;15.99;68.75;98144.09;105757;1281;22545;-84
2022/09/14 00:47:17;;;;;;;7.90;3.20;;;;;;;15.98;68.86;98151.60;105539;1281;22564;-85
2022/09/14 00:50:03;;;;;;;8.00;3.20;;;;;;;15.97;68.99;98147.52;105651;1281;25449;-83
2022/09/14 00:53:02;;;;;;;;;;;;;;;;;;;;;
2022/09/14 00:55:39;;;;;;;8.20;3.40;;;;;;;15.98;68.99;98148.88;105804;1281;25564;-82
2022/09/14 00:58:38;;;;;;;;;;;;;;;;;;;;;
2022/09/14 01:02:05;;;;;;;7.90;3.10;;;;;;;16.06;69.07;98153.96;105647;1281;25549;-84
2022/09/14 01:05:36;;;;;;;7.30;3.30;;;;;;;16.13;69.13;98151.67;105525;1281;23045;-84
2022/09/14 01:09:51;;;;;;;8.10;3.10;;;;;;;16.22;69.14;98140.47;105344;1286;22598;-84
2022/09/14 01:12:43;;;;;;;9.80;3.50;;;;;;;16.32;69.07;98141.02;105442;1286;25694;-83
2022/09/14 01:16:10;;;;;;;;;;;;;;;;;;;;;
2022/09/14 01:19:19;;;;;;;7.40;3.50;;;;;;;16.38;69.15;98137.50;105320;1286;24336;-84
2022/09/14 01:23:28;;;;;;;9.10;3.40;;;;;;;16.43;69.18;98131.88;105854;1277;22567;-83
2022/09/14 01:26:57;;;;;;;9.30;3.70;;;;;;;16.45;69.16;98127.48;105944;1277;23911;-83
2022/09/14 01:30:24;;;;;;;;;;;;;;;;;;;;;
2022/09/14 01:34:31;;;;;;;8.20;3.70;;;;;;;16.40;69.19;98122.90;101784;1280;5429857;-83
2022/09/14 01:37:55;;;;;;;;;;;;;;;;;;;;;
2022/09/14 01:41:13;;;;;;;;;;;;;;;;;;;;;
2022/09/14 01:44:25;;;;;;;6.60;3.10;;;;;;;16.14;69.24;98114.47;105982;1277;24425;-87
2022/09/14 01:48:50;;;;;;;7.40;3.20;;;;;;;16.05;69.27;98113.26;106424;1274;22781;-84
2022/09/14 01:51:34;;;;;;;8.10;3.30;;;;;;;15.99;69.37;98123.29;105617;1282;24355;-83
2022/09/14 01:54:57;;;;;;;;;;;;;;;;;;;;;
2022/09/14 01:58:44;;;;;;;;;;;;;;;;;;;;;
2022/09/14 02:02:18;;;;;;;;;;;;;;;;;;;;;
2022/09/14 02:05:55;;;;;;;;;;;;;;;;;;;;;
2022/09/14 02:09:09;;;;;;;9.90;3.70;;;;;;;15.92;69.71;98102.66;104360;1294;23863;-83
2022/09/14 02:11:59;;;;;;;8.80;3.50;;;;;;;15.93;69.87;98106.86;104394;1294;23346;-82
2022/09/14 02:14:40;;;;;;;8.50;3.80;;;;;;;15.95;69.92;98105.34;104303;1294;25389;-83
2022/09/14 02:17:23;;;;;;;9.70;3.10;;;;;;;15.97;69.93;98106.48;104195;1294;23186;-84
2022/09/14 02:20:21;;;;;;;8.50;3.50;;;;;;;15.95;69.77;98104.60;104291;1294;25323;-83
2022/09/14 02:23:13;;;;;;;8.70;3.80;;;;;;;15.96;69.95;98105.30;104275;1294;24269;-84
2022/09/14 02:25:43;;;;;;;13.00;4.30;;;;;;;15.94;69.89;98111.19;104098;1287;23275;-84
2022/09/14 02:28:16;;;;;;;7.80;3.90;;;;;;;15.91;69.97;98112.42;104987;1287;23942;-85
2022/09/14 02:30:56;;;;;;;8.90;3.30;;;;;;;15.88;69.91;98109.17;104795;1288;22577;-85
2022/09/14 02:34:08;;;;;;;10.60;3.70;;;;;;;15.84;69.94;98106.73;105005;1287;25517;-83
2022/09/14 02:37:32;;;;;;;8.20;3.80;;;;;;;15.84;70.04;98106.55;104999;1287;24258;-84
2022/09/14 02:40:35;;;;;;;11.10;3.30;;;;;;;15.86;70.22;98106.19;105444;1282;22830;-86
2022/09/14 02:43:42;;;;;;;8.10;4.00;;;;;;;15.87;70.13;98101.94;105957;1274;22534;-85
2022/09/14 02:47:06;;;;;;;12.10;4.50;;;;;;;15.83;70.15;98092.48;106421;1274;22555;-86
2022/09/14 02:50:11;;;;;;;10.20;4.20;;;;;;;15.81;70.23;98090.27;106414;1274;26604;-88
2022/09/14 02:52:50;;;;;;;10.30;4.10;;;;;;;15.77;70.36;98094.05;106223;1274;22533;-82
2022/09/14 02:55:27;;;;;;;9.20;4.10;;;;;;;15.75;70.36;98099.34;106129;1274;25245;-84
2022/09/14 02:58:22;;;;;;;7.80;3.70;;;;;;;15.75;70.41;98103.98;106340;1274;22706;-84
2022/09/14 03:01:03;;;;;;;9.40;3.80;;;;;;;15.77;70.41;98098.50;106138;1274;24342;-85
2022/09/14 03:04:09;;;;;;;12.00;4.50;;;;;;;15.81;70.47;98094.73;106423;1274;25504;-82
2022/09/14 03:06:59;;;;;;;9.00;4.10;;;;;;;15.82;70.50;98093.11;106075;1274;22770;-83
2022/09/14 03:09:52;;;;;;;8.30;4.20;;;;;;;15.77;70.29;98095.17;106394;1274;25226;-83
2022/09/14 03:12:29;;;;;;;10.00;4.20;;;;;;;15.68;70.45;98093.23;106202;1274;22522;-84
2022/09/14 03:15:01;;;;;;;7.90;3.90;;;;;;;15.60;70.43;98095.66;106079;1274;25232;-83
2022/09/14 03:17:45;;;;;;;7.90;3.90;;;;;;;15.58;70.55;98087.66;106113;1274;25440;-82
2022/09/14 03:20:18;;;;;;;9.10;4.00;;;;;;;15.60;70.72;98081.93;106436;1272;22556;-83
2022/09/14 03:23:09;;;;;;;9.00;4.10;;;;;;;15.63;70.70;98072.09;106106;1274;22543;-84
2022/09/14 03:26:00;;;;;;;9.70;4.00;;;;;;;15.66;70.72;98074.81;106049;1274;25013;-83
2022/09/14 03:28:50;;;;;;;;;;;;;;;;;;;;;
2022/09/14 03:31:45;;;;;;;10.40;4.30;;;;;;;15.72;70.84;98065.91;106051;1274;22573;-84
2022/09/14 03:34:24;;;;;;;8.00;4.50;;;;;;;15.75;70.92;98065.79;106132;1274;25407;-82
2022/09/14 03:37:29;;;;;;;;;;;;;;;;;;;;;
2022/09/14 03:40:25;;;;;;;9.70;4.00;;;;;;;15.65;70.69;98074.53;105863;1274;22505;-82
2022/09/14 03:43:26;;;;;;;8.30;3.90;;;;;;;15.57;70.69;98080.14;106407;1274;22762;-83
2022/09/14 03:46:19;;;;;;;9.00;3.80;;;;;;;15.50;70.80;98082.85;106242;1274;24004;-82
2022/09/14 03:49:24;;;;;;;9.10;4.00;;;;;;;15.47;70.88;98076.54;106173;1274;23029;-83
2022/09/14 03:53:08;;;;;;;10.60;4.30;;;;;;;15.48;71.03;98074.81;106175;1274;24088;-82
2022/09/14 03:55:46;;;;;;;11.40;4.30;;;;;;;15.49;71.06;98071.48;106356;1274;25439;-83
2022/09/14 03:58:21;;;;;;;11.20;4.60;;;;;;;15.47;71.11;98068.77;106405;1274;22773;-84
2022/09/14 04:01:07;;;;;;;7.80;4.20;;;;;;;15.43;71.01;98067.80;106165;1274;22835;-82
2022/09/14 04:03:59;;;;;;;;;;;;;;;;;;;;;
2022/09/14 04:07:17;;;;;;;11.60;4.10;;;;;;;15.37;71.10;98064.70;106232;1274;25305;-82
2022/09/14 04:10:20;;;;;;;8.80;4.60;;;;;;;15.38;71.27;98070.44;106472;1274;22535;-84
2022/09/14 04:13:30;;;;;;;10.70;4.70;;;;;;;15.36;71.38;98065.44;106116;1274;25481;-83
2022/09/14 04:16:43;;;;;;;;;;;;;;;;;;;;;
2022/09/14 04:19:41;;;;;;;11.10;5.30;;;;;;;15.16;71.26;98063.84;106284;1274;22553;-83
2022/09/14 04:22:25;;;;;;;12.20;4.80;;;;;;;15.11;71.46;98064.39;106092;1274;22549;-85
2022/09/14 04:24:56;;;;;;;10.80;4.80;;;;;;;15.14;71.54;98061.52;106277;1271;25432;-82
2022/09/14 04:27:54;;;;;;;12.30;5.40;;;;;;;15.20;71.66;98059.52;106071;1274;22541;-83
2022/09/14 04:31:09;;;;;;;13.30;5.30;;;;;;;15.27;71.63;98067.83;106419;1274;24358;-84
2022/09/14 04:33:47;;;;;;;10.30;5.50;;;;;;;15.33;71.60;98070.61;106451;1274;22527;-83
2022/09/14 04:36:30;;;;;;;13.30;5.70;;;;;;;15.37;71.64;98071.96;106420;1274;23926;-83
2022/09/14 04:40:10;;;;;;;;;;;;;;;;;;;;;
2022/09/14 04:43:37;;;;;;;11.30;5.60;;;;;;;15.42;71.73;98075.04;106303;1274;24287;-84
2022/09/14 04:46:41;;;;;;;;;;;;;;;;;;;;;
2022/09/14 04:49:45;;;;;;;10.20;5.40;;;;;;;15.52;71.73;98073.63;106350;1272;22710;-82
2022/09/14 04:52:48;;;;;;;16.20;5.60;;;;;;;15.55;71.70;98078.98;106237;1274;22604;-85
2022/09/14 04:56:06;;;;;;;13.00;6.10;;;;;;;15.55;71.71;98081.18;106150;1274;22541;-84
2022/09/14 04:58:51;;;;;;;13.10;5.70;;;;;;;15.55;71.63;98078.29;106205;1274;22558;-85
2022/09/14 05:01:48;;;;;;;12.50;5.20;;;;;;;15.56;71.83;98078.02;106378;1272;25281;-83
2022/09/14 05:05:25;;;;;;;12.30;5.50;;;;;;;15.56;71.77;98078.73;106332;1273;24275;-83
2022/09/14 05:08:14;;;;;;;11.50;5.00;;;;;;;15.61;71.90;98073.39;106390;1274;22571;-82
2022/09/14 05:10:57;;;;;;;;;;;;;;;;;;;;;
2022/09/14 05:14:13;;;;;;;12.00;5.50;;;;;;;15.77;71.92;98060.41;106162;1274;22553;-86
2022/09/14 05:18:03;;;;;;;;;;;;;;;;;;;;;
2022/09/14 05:22:12;;;;;;;13.30;5.50;;;;;;;15.99;71.87;98063.38;105819;1281;22674;-85
2022/09/14 05:25:46;;;;;;;;;;;;;;;;;;;;;
2022/09/14 05:28:55;;;;;;;;;;;;;;;;;;;;;
2022/09/14 05:31:58;;;;;;;17.90;6.10;;;;;;;16.14;71.99;98065.28;103979;1300;24248;-84
2022/09/14 05:35:21;;;;;;;;;;;;;;;;;;;;;
2022/09/14 05:39:12;;;;;;;13.50;6.10;;;;;;;16.29;72.08;98063.17;103960;1300;24414;-83
2022/09/14 05:46:18;;;;;;;13.50;6.30;;;;;;;16.39;72.09;98062.04;103342;1306;25632;-83
2022/09/14 05:49:24;;;;;;;;;;;;;;;;;;;;;
2022/09/14 05:52:24;;;;;;;17.00;6.50;;;;;;;16.39;71.98;98058.64;103279;1303;24331;-86
2022/09/14 05:55:10;;;;;;;18.00;7.00;;;;;;;16.38;72.14;98052.85;103517;1303;22580;-83
2022/09/14 05:57:44;;;;;;;16.90;6.60;;;;;;;16.39;72.10;98051.05;103872;1297;25458;-82
2022/09/14 06:00:22;;;;;;;14.70;6.80;;;;;;;16.40;72.09;98047.89;104441;1294;24345;-84
2022/09/14 06:02:53;;;;;;;14.20;7.40;;;;;;;16.40;71.94;98058.36;104802;1291;22589;-85
2022/09/14 06:05:38;;;;;;;15.30;7.20;;;;;;;16.33;71.96;98055.94;105170;1284;22708;-84
2022/09/14 06:08:15;;;;;;;13.20;7.20;;;;;;;16.30;72.02;98062.17;105577;1284;22537;-84
2022/09/14 06:10:58;;;;;;;14.80;7.60;;;;;;;16.30;72.01;98061.30;105460;1282;25513;-82
2022/09/14 06:13:33;;;;;;;15.30;7.20;;;;;;;16.35;72.09;98058.39;105475;1284;25343;-80
2022/09/14 06:16:10;;;;;;;18.40;8.30;;;;;;;16.41;72.08;98056.66;105419;1284;25518;-81
2022/09/14 06:18:43;;;;;;;16.40;7.70;;;;;;;16.50;72.22;98050.46;105592;1274;25297;-81
2022/09/14 06:21:21;;;;;;;15.30;7.40;;;;;;;16.63;72.29;98043.94;106067;1274;22552;-84
2022/09/14 06:23:54;;;;;;;17.00;8.00;;;;;;;16.76;72.32;98044.09;106132;1274;22700;-83
2022/09/14 06:26:41;;;;;;;16.10;7.20;;;;;;;16.85;72.22;98044.02;106130;1274;22563;-82
2022/09/14 06:29:25;;;;;;;21.10;8.10;;;;;;;16.91;72.38;98038.93;106049;1274;22525;-84
2022/09/14 06:32:11;;;;;;;25.90;8.70;;;;;;;17.06;72.47;98043.52;106164;1273;22539;-83
2022/09/14 06:34:53;;;;;;;22.80;8.50;;;;;;;17.15;72.31;98041.41;106064;1274;25587;-86
2022/09/14 06:37:30;;;;;;;21.20;8.00;;;;;;;17.18;72.23;98042.48;106075;1274;25410;-82
2022/09/14 06:40:04;;;;;;;20.30;8.20;;;;;;;17.24;72.30;98043.08;106311;1274;24808;-83
2022/09/14 06:42:47;;;;;;;20.20;8.10;;;;;;;17.33;72.34;98043.64;106365;1274;24269;-83
2022/09/14 06:45:26;;;;;;;27.60;8.00;;;;;;;17.42;72.29;98045.67;106353;1274;25349;-82
2022/09/14 06:47:57;;;;;;;18.50;7.00;;;;;;;17.52;72.34;98044.45;106151;1274;22619;-85
2022/09/14 06:50:28;;;;;;;20.90;7.00;;;;;;;17.62;72.35;98044.63;106338;1274;24189;-83
2022/09/14 06:53:11;;;;;;;15.70;6.40;;;;;;;17.67;72.08;98044.89;106059;1274;22837;-82
2022/09/14 06:55:51;;;;;;;15.20;6.20;;;;;;;17.63;72.10;98047.90;106151;1274;22576;-81
2022/09/14 06:58:31;;;;;;;;;;;;;;;;;;;;;
2022/09/14 07:01:44;;;;;;;15.80;6.20;;;;;;;17.79;72.33;98043.11;106060;1274;22576;-81
2022/09/14 07:04:17;;;;;;;18.80;6.00;;;;;;;17.97;72.39;98039.05;106120;1274;22552;-83
2022/09/14 07:07:04;;;;;;;20.60;6.70;;;;;;;18.08;72.32;98039.52;106141;1274;25232;-82
2022/09/14 07:09:48;;;;;;;18.40;7.20;;;;;;;18.15;72.19;98038.11;106131;1274;22473;-82
2022/09/14 07:12:20;;;;;;;20.30;7.70;;;;;;;18.24;72.37;98033.52;106130;1274;22577;-86
2022/09/14 07:15:02;;;;;;;21.90;7.30;;;;;;;18.32;72.18;98033.02;106092;1274;25340;-82
2022/09/14 07:17:56;;;;;;;17.80;6.70;;;;;;;18.39;72.05;98032.03;106371;1274;24401;-85
2022/09/14 07:20:47;;;;;;;18.30;7.20;;;;;;;18.45;72.24;98030.67;106059;1274;22682;-85
2022/09/14 07:23:20;;;;;;;20.20;7.50;;;;;;;18.60;72.47;98029.20;106074;1274;25358;-81
2022/09/14 07:26:06;;;;;;;15.60;6.80;;;;;;;18.77;72.46;98030.05;106169;1274;25371;-82
2022/09/14 07:29:08;;;;;;;18.10;7.00;;;;;;;18.91;72.51;98025.64;106044;1274;24230;-82
2022/09/14 07:31:46;;;;;;;16.60;7.30;;;;;;;19.03;72.30;98028.84;106271;1274;24389;-84
2022/09/14 07:34:58;;;;;;;14.70;6.90;;;;;;;19.09;72.00;98030.52;106120;1274;22635;-83
2022/09/14 07:37:58;;;;;;;18.60;7.60;;;;;;;19.11;72.21;98027.23;106335;1274;22821;-83
2022/09/14 07:41:01;;;;;;;15.60;8.20;;;;;;;19.12;72.14;98027.31;106377;1274;24294;-83
2022/09/14 07:43:30;;;;;;;18.50;7.30;;;;;;;19.18;72.25;98028.10;106089;1274;22545;-82
2022/09/14 07:46:10;;;;;;;18.70;7.30;;;;;;;19.23;72.18;98030.78;106137;1274;22529;-87
2022/09/14 07:49:03;;;;;;;17.30;7.40;;;;;;;19.29;72.09;98034.85;106398;1274;25270;-82
2022/09/14 07:51:56;;;;;;;13.60;7.10;;;;;;;19.35;72.13;98033.75;106102;1274;22580;-87
2022/09/14 07:54:34;;;;;;;17.00;8.00;;;;;;;19.39;72.12;98031.99;106333;1274;22545;-83
2022/09/14 07:57:07;;;;;;;17.30;7.00;;;;;;;19.42;72.17;98030.58;105995;1274;22527;-87
2022/09/14 07:59:39;;;;;;;16.10;7.40;;;;;;;19.45;72.04;98028.73;106109;1274;22549;-82
2022/09/14 08:02:14;;;;;;;18.60;7.00;;;;;;;19.48;71.99;98026.52;105980;1274;22664;-81
2022/09/14 08:04:52;;;;;;;16.80;7.50;;;;;;;19.44;71.59;98026.64;106281;1273;25238;-83
2022/09/14 08:07:41;;;;;;;18.50;7.00;;;;;;;19.30;71.18;98024.08;106255;1274;22758;-82
2022/09/14 08:10:09;;;;;;;17.50;6.90;;;;;;;19.17;71.85;98024.84;106230;1274;25486;-81
2022/09/14 08:12:46;;;;;;;18.30;7.90;;;;;;;19.22;72.07;98022.02;106057;1273;22549;-83
2022/09/14 08:15:16;;;;;;;16.70;8.30;;;;;;;19.31;72.04;98022.47;105865;1274;24280;-84
2022/09/14 08:17:49;;;;;;;18.30;7.30;;;;;;;19.38;71.79;98013.28;106145;1274;22533;-82
2022/09/14 08:20:29;;;;;;;18.00;7.80;;;;;;;19.39;71.91;98015.36;106042;1274;24025;-83
2022/09/14 08:23:10;;;;;;;15.20;6.10;;;;;;;19.39;72.01;98012.59;106094;1274;22616;-82
2022/09/14 08:25:40;;;;;;;17.50;7.30;;;;;;;19.43;71.96;98013.56;105993;1273;24361;-82
2022/09/14 08:28:08;;;;;;;19.80;7.40;;;;;;;19.48;72.12;98009.06;106038;1274;22554;-84
2022/09/14 08:30:42;;;;;;;18.80;7.00;;;;;;;19.51;72.19;98003.96;105991;1274;22573;-83
2022/09/14 08:33:21;;;;;;;14.70;7.70;;;;;;;19.58;72.03;98012.09;105985;1274;23907;-84
2022/09/14 08:35:48;;;;;;;15.10;6.90;;;;;;;19.63;71.83;98005.83;105990;1274;22577;-81
2022/09/14 08:38:23;;;;;;;13.40;6.60;;;;;;;19.61;71.45;98007.75;106093;1274;22525;-85
2022/09/14 08:41:04;;;;;;;16.00;7.60;;;;;;;19.56;71.88;98011.14;106080;1274;25237;-81
2022/09/14 08:43:50;;;;;;;11.70;7.00;;;;;;;19.63;71.92;98008.16;106206;1274;23062;-82
2022/09/14 08:46:46;;;;;;;15.80;6.70;;;;;;;19.71;71.83;98007.86;106025;1274;22530;-86
2022/09/14 08:49:24;;;;;;;14.70;7.40;;;;;;;19.79;71.89;98007.02;105896;1274;22552;-83
2022/09/14 08:52:05;;;;;;;15.10;8.00;;;;;;;19.81;71.62;98005.25;106041;1274;24349;-82
2022/09/14 08:55:20;;;;;;;16.30;7.60;;;;;;;19.79;71.50;98007.08;106110;1274;23940;-82
2022/09/14 08:58:31;;;;;;;15.00;7.10;;;;;;;19.84;71.53;98005.11;106184;1274;22543;-83
2022/09/14 09:01:37;;;;;;;14.30;7.00;;;;;;;19.90;71.62;98009.66;106076;1274;25232;-86
2022/09/14 09:05:13;;;;;;;13.10;7.20;;;;;;;20.04;71.60;98006.29;106090;1274;25330;-82
2022/09/14 09:08:42;;;;;;;12.10;6.50;;;;;;;20.16;71.49;98008.88;106363;1274;22563;-82
2022/09/14 09:11:54;;;;;;;14.60;7.40;;;;;;;20.19;71.09;98004.64;105851;1280;24306;-83
2022/09/14 09:14:39;;;;;;;14.40;8.20;;;;;;;20.22;71.34;98005.86;105472;1284;22630;-83
2022/09/14 09:17:57;;;;;;;13.80;7.20;;;;;;;20.24;71.38;98007.98;105174;1284;25244;-83
2022/09/14 09:20:44;;;;;;;14.30;7.40;;;;;;;20.21;71.45;98011.08;105155;1286;22556;-81
2022/09/14 09:23:43;;;;;;;13.40;7.40;;;;;;;20.17;71.19;98008.09;105079;1284;22707;-86
2022/09/14 09:26:42;;;;;;;13.50;7.30;;;;;;;20.14;71.25;98006.31;105010;1284;22724;-82
2022/09/14 09:29:23;;;;;;;21.70;8.10;;;;;;;20.19;71.38;98004.98;105178;1286;22641;-82
2022/09/14 09:33:06;;;;;;;;;;;;;;;;;;;;;
2022/09/14 09:36:50;;;;;;;18.40;7.30;;;;;;;20.19;71.18;98001.60;105320;1283;22558;-83
2022/09/14 09:39:30;;;;;;;17.60;7.60;;;;;;;20.19;71.22;97997.93;105290;1283;25474;-82
2022/09/14 09:42:29;;;;;;;19.50;7.80;;;;;;;20.19;71.42;97992.97;105483;1283;24224;-84
2022/09/14 09:46:08;;;;;;;20.20;7.70;;;;;;;20.21;71.45;97993.34;105391;1283;22566;-83
2022/09/14 09:48:46;;;;;;;19.10;7.70;;;;;;;20.24;71.25;97990.25;105711;1277;25232;-81
2022/09/14 09:52:06;;;;;;;14.90;7.10;;;;;;;20.30;71.21;97990.04;105788;1274;22642;-81
2022/09/14 09:55:43;;;;;;;16.60;6.70;;;;;;;20.40;71.37;97993.11;105747;1280;22547;-85
2022/09/14 09:58:39;;;;;;;20.60;8.80;;;;;;;20.54;71.40;97994.94;105576;1280;25310;-82
2022/09/14 10:01:54;;;;;;;17.80;7.60;;;;;;;20.61;71.24;97998.48;105625;1280;25298;-81
2022/09/14 10:04:34;;;;;;;14.90;8.00;;;;;;;20.63;71.14;97994.66;104900;1287;25301;-81
2022/09/14 10:07:27;;;;;;;16.50;8.00;;;;;;;20.64;71.11;97992.90;104910;1288;22871;-84
2022/09/14 10:10:16;;;;;;;17.40;6.70;;;;;;;20.63;71.18;97995.58;105055;1288;22605;-82
2022/09/14 10:13:39;;;;;;;14.70;7.30;;;;;;;20.62;71.04;97991.35;104934;1287;25378;-82
2022/09/14 10:16:33;;;;;;;;;;;;;;;;;;;;;
2022/09/14 10:19:50;;;;;;;;;;;;;;;;;;;;;
2022/09/14 10:23:09;;;;;;;16.70;8.60;;;;;;;20.53;71.09;97982.03;104434;1294;22551;-85
2022/09/14 10:26:11;;;;;;;18.70;8.10;;;;;;;20.59;71.29;97985.27;104427;1293;25504;-82
2022/09/14 10:29:13;;;;;;;19.00;8.80;;;;;;;20.59;70.81;97985.77;104402;1293;22574;-85
2022/09/14 10:31:49;;;;;;;17.70;9.30;;;;;;;20.60;71.17;97983.86;104812;1286;25210;-81
2022/09/14 10:34:29;;;;;;;19.90;9.80;;;;;;;20.65;71.14;97981.60;105093;1277;22576;-86
2022/09/14 10:37:22;;;;;;;20.40;10.70;;;;;;;20.69;71.12;97981.41;105748;1280;24396;-83
2022/09/14 10:40:20;;;;;;;22.00;10.50;;;;;;;20.69;70.82;97976.91;105865;1277;22531;-81
2022/09/14 10:43:08;;;;;;;25.70;10.20;;;;;;;20.67;70.90;97980.23;105785;1280;22855;-82
2022/09/14 10:45:59;;;;;;;21.90;10.40;;;;;;;20.70;70.94;97974.37;105848;1277;22562;-86
2022/09/14 10:48:53;;;;;;;19.60;9.30;;;;;;;20.74;70.79;97963.36;105753;1280;25438;-83
2022/09/14 10:52:00;;;;;;;18.60;8.80;;;;;;;20.82;71.03;97964.02;105883;1280;22846;-85
2022/09/14 10:55:05;;;;;;;21.70;7.50;;;;;;;20.98;71.11;97957.16;105670;1280;25540;-82
2022/09/14 10:57:56;;;;;;;17.10;8.70;;;;;;;21.14;71.01;97957.46;105753;1280;23738;-82
2022/09/14 11:00:51;;;;;;;14.80;8.40;;;;;;;21.25;70.83;97955.19;106049;1274;23901;-82
2022/09/14 11:04:22;;;;;;;15.40;8.20;;;;;;;21.35;70.68;97958.23;106456;1274;25236;-84
2022/09/14 11:07:08;;;;;;;16.60;8.70;;;;;;;21.45;70.57;97957.02;106425;1274;25454;-81
2022/09/14 11:10:16;;;;;;;15.50;8.20;;;;;;;21.51;70.50;97961.48;106290;1274;24210;-87
2022/09/14 11:13:06;;;;;;;12.70;7.30;;;;;;;21.51;70.57;97959.70;105806;1280;22856;-83
2022/09/14 11:15:59;;;;;;;15.40;8.90;;;;;;;21.44;70.41;97961.83;105760;1281;22540;-81
2022/09/14 11:18:58;;;;;;;13.80;8.50;;;;;;;21.34;70.50;97961.59;105601;1280;25312;-82
2022/09/14 11:21:59;;;;;;;14.70;9.20;;;;;;;21.25;70.57;97961.38;105571;1281;25450;-83
2022/09/14 11:24:54;;;;;;;19.30;8.30;;;;;;;21.17;70.50;97959.56;105716;1280;22637;-81
2022/09/14 11:27:38;;;;;;;16.60;8.20;;;;;;;21.12;70.45;97954.02;105771;1281;24395;-84
2022/09/14 11:30:19;;;;;;;15.40;8.80;;;;;;;21.09;70.69;97954.39;105693;1280;24229;-82
2022/09/14 11:32:54;;;;;;;17.00;8.60;;;;;;;21.09;70.52;97951.67;105658;1282;22586;-87
2022/09/14 11:35:30;;;;;;;17.10;8.60;;;;;;;21.08;70.61;97950.27;105686;1281;25410;-82
2022/09/14 11:38:19;;;;;;;16.90;8.60;;;;;;;21.10;70.63;97948.34;105608;1282;22550;-84
2022/09/14 11:41:02;;;;;;;13.90;7.70;;;;;;;21.11;70.69;97939.70;105610;1283;22564;-86
2022/09/14 11:43:44;;;;;;;16.50;8.80;;;;;;;21.12;70.50;97937.39;105581;1280;22903;-81
2022/09/14 11:46:21;;;;;;;14.60;9.00;;;;;;;21.10;70.48;97937.44;105829;1277;22537;-81
2022/09/14 11:49:00;;;;;;;16.00;8.80;;;;;;;21.10;70.25;97935.23;106305;1273;22540;-82
2022/09/14 11:52:15;;;;;;;15.50;8.50;;;;;;;21.15;70.42;97933.52;106474;1274;22667;-82
2022/09/14 11:54:47;;;;;;;14.80;7.80;;;;;;;21.19;70.44;97935.48;106060;1274;25295;-83
2022/09/14 11:57:34;;;;;;;14.00;7.70;;;;;;;21.21;70.45;97934.27;105985;1274;24234;-84
2022/09/14 12:00:29;;;;;;;14.80;8.80;;;;;;;21.23;70.51;97935.67;106288;1274;22590;-81
2022/09/14 12:03:44;;;;;;;14.10;8.60;;;;;;;21.25;70.35;97934.56;106333;1274;22602;-83
2022/09/14 12:06:54;;;;;;;15.90;8.70;;;;;;;21.20;70.37;97937.59;106314;1274;22609;-81
2022/09/14 12:09:24;;;;;;;13.20;8.00;;;;;;;21.22;70.49;97936.23;106392;1274;24245;-81
2022/09/14 12:12:24;;;;;;;13.50;7.70;;;;;;;21.25;70.40;97926.14;106244;1274;24408;-82
2022/09/14 12:15:03;;;;;;;15.40;8.50;;;;;;;21.24;70.22;97931.95;106366;1274;23912;-82
2022/09/14 12:17:41;;;;;;;15.90;8.60;;;;;;;21.23;70.29;97937.84;106526;1274;22705;-82
2022/09/14 12:20:47;;;;;;;13.80;7.90;;;;;;;21.18;70.34;97933.41;106498;1274;25534;-81
2022/09/14 12:23:28;;;;;;;16.50;8.50;;;;;;;21.08;70.21;97922.66;106160;1274;22648;-81
2022/09/14 12:26:21;;;;;;;14.70;9.40;;;;;;;21.00;70.37;97916.16;106137;1274;25378;-81
2022/09/14 12:29:03;;;;;;;;;;;;;;;;;;;;;
2022/09/14 12:31:53;;;;;;;15.10;8.70;;;;;;;20.83;70.33;97914.31;106460;1274;25356;-81
2022/09/14 12:34:32;;;;;;;14.00;8.30;;;;;;;20.74;70.44;97914.48;106392;1274;26463;-82
2022/09/14 12:37:36;;;;;;;14.60;9.00;;;;;;;20.72;70.46;97920.94;106236;1274;24208;-81
2022/09/14 12:40:26;;;;;;;14.00;7.30;;;;;;;20.65;70.32;97928.77;105967;1275;22538;-85
2022/09/14 12:43:49;;;;;;;12.30;7.10;;;;;;;20.61;70.42;97922.03;106104;1274;22717;-84
2022/09/14 12:46:51;;;;;;;14.20;8.10;;;;;;;20.59;70.49;97907.38;105987;1274;25375;-82
2022/09/14 12:49:36;;;;;;;16.80;8.90;;;;;;;20.55;70.42;97906.53;106234;1274;22983;-82
2022/09/14 12:52:21;;;;;;;15.90;8.30;;;;;;;20.53;70.30;97899.87;106237;1274;22537;-83
2022/09/14 12:55:51;;;;;;;15.70;8.90;;;;;;;20.47;70.32;97897.02;106363;1274;22574;-81
2022/09/14 12:58:55;;;;;;;12.00;7.20;;;;;;;20.40;70.33;97906.13;106314;1274;24271;-82
2022/09/14 13:02:14;;;;;;;15.50;8.10;;;;;;;20.37;70.55;97901.66;106467;1274;22560;-81
2022/09/14 13:04:44;;;;;;;14.20;8.10;;;;;;;20.35;70.56;97899.96;106194;1277;22545;-81
2022/09/14 13:08:02;;;;;;;17.10;8.60;;;;;;;20.32;70.59;97889.03;106212;1275;22562;-80
2022/09/14 13:11:11;;;;;;;17.50;8.80;;;;;;;20.24;70.63;97892.31;106160;1275;25477;-82
2022/09/14 13:13:51;;;;;;;15.40;8.60;;;;;;;20.18;70.70;97888.29;106183;1274;22543;-81
2022/09/14 13:17:06;;;;;;;;;;;;;;;;;;;;;
2022/09/14 13:20:03;;;;;;;15.80;8.70;;;;;;;20.01;70.68;97881.26;106417;1274;25388;-80
2022/09/14 13:23:19;;;;;;;15.70;8.50;;;;;;;20.00;70.92;97879.27;106219;1277;22556;-80
2022/09/14 13:26:17;;;;;;;18.00;8.80;;;;;;;20.03;70.96;97876.22;106510;1274;24044;-81
2022/09/14 13:29:09;;;;;;;14.50;8.10;;;;;;;20.07;71.06;97867.63;106202;1275;24208;-82
2022/09/14 13:32:03;;;;;;;13.20;8.40;;;;;;;20.12;71.05;97863.27;106375;1274;25301;-81
2022/09/14 13:34:52;;;;;;;16.10;9.40;;;;;;;20.15;71.07;97858.86;104960;1274;1608843;-81
2022/09/14 13:37:45;;;;;;;;;;;;;;;;;;;;;
2022/09/14 13:40:33;;;;;;;15.40;9.70;;;;;;;20.22;71.12;97856.23;106177;1274;25586;-82
2022/09/14 13:44:04;;;;;;;17.80;9.70;;;;;;;20.26;71.02;97846.88;106192;1274;22555;-80
2022/09/14 13:47:03;;;;;;;15.10;9.20;;;;;;;20.31;71.05;97847.73;106178;1274;24672;-82
2022/09/14 13:50:28;;;;;;;18.60;9.00;;;;;;;20.41;71.21;97847.90;106147;1275;22653;-81
2022/09/14 13:54:03;;;;;;;18.30;11.70;;;;;;;20.49;71.13;97846.63;106246;1274;25423;-83
2022/09/14 13:56:33;;;;;;;19.00;10.20;;;;;;;20.55;71.23;97845.45;105835;1280;22687;-82
2022/09/14 13:59:48;;;;;;;18.00;10.00;;;;;;;20.61;71.14;97846.15;105880;1283;25327;-81
2022/09/14 14:02:34;;;;;;;15.30;9.60;;;;;;;20.60;71.13;97841.48;105554;1281;22604;-83
2022/09/14 14:05:46;;;;;;;16.00;9.50;;;;;;;20.60;71.19;97842.23;105630;1281;25354;-81
2022/09/14 14:08:27;;;;;;;14.30;9.60;;;;;;;20.61;71.21;97844.61;105844;1281;25474;-82
2022/09/14 14:11:04;;;;;;;14.50;9.00;;;;;;;20.60;71.22;97845.36;105715;1281;23332;-82
2022/09/14 14:13:37;;;;;;;14.40;8.90;;;;;;;20.57;71.23;97843.73;105971;1281;23281;-81
2022/09/14 14:16:33;;;;;;;14.20;8.70;;;;;;;20.55;71.18;97838.47;105892;1281;22588;-85
2022/09/14 14:19:36;;;;;;;10.40;7.00;;;;;;;20.52;71.28;97834.66;105722;1281;22580;-81
2022/09/14 14:22:58;;;;;;;11.80;6.50;;;;;;;20.49;71.30;97829.81;105847;1281;25216;-84